Burnsville, Minnesota
Current Conditions -  °F | °C
As of 4:53 PM on Saturday 25 Oct 2014 (Local Time) from KMSP Reporting Station
Clear Clear  
Wind Chill: 61°   Ceiling: Unl
Heat Index: 61°   Visibility: 10mi
Dew Point: 24°   Wind: 17mph
Humidity: 24%   Direction: 310°NW
Pressure: 30.03"   Gusts: NA
Location:  44.77°N, 93.27°W
Report Text: KMSP 252153Z 31015KT 10SM CLR 16/M04 A3003 RMK AO2 SLP171 T01611044
Loading
Personal Weather Stations






























Interactive Weather Map
Tropical Storm Tracking
New forecast layout! Learn more

10-Day Weather Forecast

Advertisements
Track Severe Weather on mobile